Main page
METAR-TAF:

METAR-TAF

Airports :

Fujairah, United Arab Emirates

Fujairah International Airport

latitude: 25-06N, longitude: 056-20E, elevation: 28 m

Current weather observation

The report was made 57 minutes ago, at 04:00 UTC
Wind 2 kt from the South
Temperature 29°C
Humidity 70%
Pressure 1012 hPa
Visibility: 7000 m

METAR: OMFJ 240400Z 17002KT 7000 NSC 29/23 Q1012 RMK A2990

Time: 08:57 (04:57 UTC)

Forecast

The report was made 5 hours and 57 minutes ago, at 23:00 UTC
Forecast valid from 24 at 00 UTC to 25 at 06 UTC
Wind 3 kt from variable directions
Visibility: 7000 m
Probability 30%
from 24 at 00 UTC to 24 at 04 UTC
Visibility: 5000 m
haze
Becoming
from 24 at 05 UTC to 24 at 07 UTC
Wind 8 kt from the East
Becoming
from 24 at 14 UTC to 24 at 16 UTC
Wind 8 kt from the South/Southeast

TAF: OMFJ 232300Z 2400/2506 VRB03KT 7000 NSC PROB30 2400/2404 5000 HZ BECMG 2405/2407 10008KT BECMG 2414/2416 16008KT

Weather observations and forecasts of more than 4000 airports (METAR and TAF reports).

The available stations are represented by yellow and red dots on the map.

Hover mouse over dot to see the name of the station.

Then click to see weather observations and forecasts.

To change the map : click on the green buttons with a black cross to zoom in, on the green button with a dash to zoom out, or on the green arrows for adjacent maps.


METAR-TAF: